createdAt,value
2022-08-30T00:02:10.772Z,1.47
2022-08-30T00:04:39.101Z,1.50
2022-08-30T00:07:08.630Z,1.47
2022-08-30T00:09:36.668Z,1.50
2022-08-30T00:12:05.458Z,1.30
2022-08-30T00:14:33.511Z,1.50
2022-08-30T00:17:01.566Z,1.50
2022-08-30T00:19:29.617Z,1.50
2022-08-30T00:21:57.743Z,1.60
2022-08-30T00:24:27.218Z,1.47
2022-08-30T00:26:55.245Z,1.40
2022-08-30T00:29:23.434Z,1.47
2022-08-30T00:31:51.460Z,1.30
2022-08-30T00:34:19.584Z,1.43
2022-08-30T00:36:47.638Z,1.43
2022-08-30T00:39:15.704Z,1.50
2022-08-30T00:41:45.197Z,1.43
2022-08-30T00:44:13.709Z,1.50
2022-08-30T00:46:41.866Z,1.40
2022-08-30T00:49:13.618Z,1.50
2022-08-30T00:51:42.571Z,1.30
2022-08-30T00:54:10.987Z,2.23
2022-08-30T00:56:39.127Z,1.63
2022-08-30T00:59:10.325Z,2.00
2022-08-30T01:01:38.570Z,1.70
2022-08-30T01:04:08.835Z,1.80
2022-08-30T01:06:39.826Z,1.30
2022-08-30T01:09:08.632Z,1.60
2022-08-30T01:11:38.460Z,1.40
2022-08-30T01:14:09.766Z,1.50
2022-08-30T01:16:40.637Z,1.80
2022-08-30T01:19:14.924Z,1.70
2022-08-30T01:21:48.903Z,1.73
2022-08-30T01:24:19.041Z,1.90
2022-08-30T01:26:47.105Z,1.70
2022-08-30T01:29:20.146Z,1.90
2022-08-30T01:31:49.348Z,1.80
2022-08-30T01:34:17.521Z,1.50
2022-08-30T01:36:47.076Z,1.70
2022-08-30T01:39:17.670Z,1.70
2022-08-30T01:41:47.262Z,1.70
2022-08-30T01:44:15.854Z,1.70
2022-08-30T01:46:46.250Z,1.60
2022-08-30T01:49:17.385Z,1.70
2022-08-30T01:51:48.166Z,1.43
2022-08-30T01:54:19.074Z,1.50
2022-08-30T01:56:48.459Z,1.23
2022-08-30T01:59:16.514Z,1.60
2022-08-30T02:01:44.755Z,1.70
2022-08-30T02:04:14.500Z,2.00
2022-08-30T02:06:44.670Z,1.93
2022-08-30T02:09:13.206Z,1.77
2022-08-30T02:11:41.489Z,1.67
2022-08-30T02:14:10.999Z,1.60
2022-08-30T02:16:39.804Z,1.70
2022-08-30T02:19:08.621Z,1.73
2022-08-30T02:21:36.675Z,1.40
2022-08-30T02:24:05.622Z,2.10
2022-08-30T02:26:36.341Z,1.67
2022-08-30T02:29:05.821Z,2.00
2022-08-30T02:31:35.589Z,1.77
2022-08-30T02:34:04.338Z,1.70
2022-08-30T02:36:32.806Z,1.70
2022-08-30T02:39:00.899Z,1.70
2022-08-30T02:41:28.981Z,1.53
2022-08-30T02:43:58.478Z,1.70
2022-08-30T02:46:26.945Z,1.90
2022-08-30T02:49:29.866Z,1.57
2022-08-30T02:51:51.578Z,1.70
2022-08-30T02:54:20.638Z,1.77
2022-08-30T02:56:48.950Z,1.50
2022-08-30T02:59:17.881Z,1.60
2022-08-30T03:01:46.150Z,1.60
2022-08-30T03:04:15.831Z,1.50
2022-08-30T03:06:43.909Z,2.00
2022-08-30T03:09:11.982Z,1.47
2022-08-30T03:11:40.774Z,1.67
2022-08-30T03:14:08.904Z,1.57
2022-08-30T03:16:36.970Z,1.83
2022-08-30T03:19:05.095Z,1.47
2022-08-30T03:21:34.589Z,1.33
2022-08-30T03:24:02.670Z,1.40
2022-08-30T03:26:30.745Z,1.80
2022-08-30T03:29:00.129Z,1.80
2022-08-30T03:31:28.408Z,1.63
2022-08-30T03:33:56.586Z,1.60
2022-08-30T03:36:24.761Z,1.47
2022-08-30T03:38:54.306Z,1.80
2022-08-30T03:41:22.437Z,1.73
2022-08-30T03:43:51.979Z,2.10
2022-08-30T03:46:28.792Z,1.83
2022-08-30T03:48:57.332Z,2.03
2022-08-30T03:51:25.608Z,1.80
2022-08-30T03:53:55.257Z,1.90
2022-08-30T03:56:24.481Z,1.93
2022-08-30T03:58:52.538Z,1.70
2022-08-30T04:01:20.690Z,2.17
2022-08-30T04:03:48.987Z,1.63
2022-08-30T04:06:17.189Z,1.67
2022-08-30T04:08:46.078Z,1.60
2022-08-30T04:11:16.465Z,1.90
2022-08-30T04:13:44.782Z,1.80
2022-08-30T04:16:13.351Z,2.17
2022-08-30T04:18:41.416Z,1.57
2022-08-30T04:21:13.511Z,2.00
2022-08-30T04:23:42.293Z,1.40
2022-08-30T04:26:10.966Z,1.90
2022-08-30T04:28:40.369Z,1.83
2022-08-30T04:31:13.142Z,1.60
2022-08-30T04:33:43.910Z,1.63
2022-08-30T04:36:13.665Z,1.87
2022-08-30T04:38:42.473Z,1.70
2022-08-30T04:41:12.337Z,1.80
2022-08-30T04:43:41.765Z,1.83
2022-08-30T04:46:10.712Z,1.60
2022-08-30T04:48:39.678Z,1.70
2022-08-30T04:51:09.353Z,1.93
2022-08-30T04:53:37.961Z,1.93
2022-08-30T04:56:09.225Z,1.90
2022-08-30T04:58:37.605Z,2.23
2022-08-30T05:01:12.461Z,1.87
2022-08-30T05:03:42.409Z,1.90
2022-08-30T05:06:12.802Z,1.73
2022-08-30T05:08:40.982Z,1.73
2022-08-30T05:11:15.837Z,1.90
2022-08-30T05:13:44.393Z,2.30
2022-08-30T05:16:17.884Z,2.00
2022-08-30T05:18:46.732Z,2.00
2022-08-30T05:21:16.851Z,1.70
2022-08-30T05:23:45.283Z,2.13
2022-08-30T05:26:15.498Z,1.90
2022-08-30T05:28:44.045Z,1.90
2022-08-30T05:31:19.146Z,2.00
2022-08-30T05:33:47.863Z,2.00
2022-08-30T05:36:18.513Z,1.67
2022-08-30T05:38:46.661Z,1.67
2022-08-30T05:41:14.888Z,2.03
2022-08-30T05:43:43.999Z,1.90
2022-08-30T05:46:19.284Z,1.97
2022-08-30T05:48:50.562Z,1.40
2022-08-30T05:51:20.803Z,1.53
2022-08-30T05:53:49.708Z,1.50
2022-08-30T05:56:20.345Z,1.77
2022-08-30T05:58:49.611Z,1.90
2022-08-30T06:01:22.926Z,1.80
2022-08-30T06:03:52.414Z,1.40
2022-08-30T06:06:20.449Z,1.87
2022-08-30T06:08:49.808Z,1.53
2022-08-30T06:11:20.368Z,1.80
2022-08-30T06:13:49.065Z,1.57
2022-08-30T06:16:19.996Z,1.60
2022-08-30T06:18:48.974Z,1.70
2022-08-30T06:21:19.546Z,1.77
2022-08-30T06:23:47.715Z,1.83
2022-08-30T06:26:16.406Z,1.50
2022-08-30T06:28:45.381Z,1.53
2022-08-30T06:31:16.040Z,1.60
2022-08-30T06:33:44.901Z,1.53
2022-08-30T06:36:19.687Z,1.80
2022-08-30T06:38:48.489Z,1.73
2022-08-30T06:41:19.427Z,1.83
2022-08-30T06:43:49.217Z,1.70
2022-08-30T06:46:20.736Z,1.70
2022-08-30T06:48:48.881Z,1.63
2022-08-30T06:51:21.465Z,2.10
2022-08-30T06:53:49.992Z,1.80
2022-08-30T06:56:19.575Z,1.63
2022-08-30T06:58:48.421Z,1.70
2022-08-30T07:01:19.485Z,1.50
2022-08-30T07:03:47.862Z,1.50
2022-08-30T07:06:16.010Z,1.50
2022-08-30T07:08:50.546Z,1.73
2022-08-30T07:11:30.365Z,1.73
2022-08-30T07:13:59.494Z,2.07
2022-08-30T07:16:28.039Z,2.00
2022-08-30T07:18:55.656Z,1.83
2022-08-30T07:21:28.045Z,1.60
2022-08-30T07:23:59.215Z,1.40
2022-08-30T07:26:29.671Z,1.50
2022-08-30T07:28:57.998Z,1.80
2022-08-30T07:31:26.358Z,1.43
2022-08-30T07:33:54.926Z,1.90
2022-08-30T07:36:24.390Z,1.50
2022-08-30T07:38:53.738Z,1.37
2022-08-30T07:41:25.516Z,1.23
2022-08-30T07:43:54.518Z,1.40
2022-08-30T07:46:23.283Z,1.50
2022-08-30T07:48:51.577Z,1.20
2022-08-30T07:51:21.939Z,1.20
2022-08-30T07:53:50.388Z,1.30
2022-08-30T07:56:18.632Z,1.50
2022-08-30T07:58:48.892Z,1.70
2022-08-30T08:01:18.346Z,1.43
2022-08-30T08:03:46.823Z,1.40
2022-08-30T08:06:17.365Z,1.50
2022-08-30T08:08:47.361Z,1.53
2022-08-30T08:11:18.736Z,1.20
2022-08-30T08:13:54.366Z,1.70
2022-08-30T08:16:26.253Z,1.57
2022-08-30T08:18:55.599Z,1.53
2022-08-30T08:21:25.555Z,1.40
2022-08-30T08:23:54.986Z,1.50
2022-08-30T08:26:24.494Z,1.60
2022-08-30T08:28:54.410Z,1.60
2022-08-30T08:31:28.800Z,1.47
2022-08-30T08:34:03.640Z,1.50
2022-08-30T08:36:33.488Z,1.70
2022-08-30T08:39:03.460Z,1.50
2022-08-30T08:41:42.639Z,1.30
2022-08-30T08:44:18.789Z,1.50
2022-08-30T08:46:57.986Z,1.70
2022-08-30T08:49:26.822Z,1.50
2022-08-30T08:52:14.355Z,1.30
2022-08-30T08:54:47.790Z,1.20
2022-08-30T08:57:17.081Z,1.53
2022-08-30T08:59:47.035Z,1.20
2022-08-30T09:02:24.980Z,1.60
2022-08-30T09:04:59.200Z,1.43
2022-08-30T09:07:31.915Z,1.47
2022-08-30T09:10:01.089Z,1.40
2022-08-30T09:12:29.526Z,1.47
2022-08-30T09:15:10.709Z,1.33
2022-08-30T09:17:53.570Z,1.37
2022-08-30T09:20:33.490Z,1.40
2022-08-30T09:23:21.622Z,1.50
2022-08-30T09:25:53.198Z,1.40
2022-08-30T09:28:25.377Z,1.20
2022-08-30T09:31:06.788Z,1.23
2022-08-30T09:33:37.810Z,1.43
2022-08-30T09:36:22.039Z,1.30
2022-08-30T09:39:00.110Z,1.43
2022-08-30T09:41:38.317Z,1.40
2022-08-30T09:44:10.794Z,1.20
2022-08-30T09:46:51.847Z,1.30
2022-08-30T09:49:32.623Z,1.60
2022-08-30T09:52:13.003Z,1.60
2022-08-30T09:54:49.781Z,1.30
2022-08-30T09:57:34.023Z,1.50
2022-08-30T10:00:06.230Z,1.27
2022-08-30T10:02:45.189Z,1.40
2022-08-30T10:05:19.588Z,1.40
2022-08-30T10:07:56.581Z,1.10
2022-08-30T10:10:36.056Z,1.30
2022-08-30T10:13:35.971Z,1.20
2022-08-30T10:16:15.360Z,1.50
2022-08-30T10:18:55.697Z,1.40
2022-08-30T10:21:31.554Z,1.23
2022-08-30T10:24:04.002Z,1.23
2022-08-30T10:26:37.817Z,0.90
2022-08-30T10:29:11.674Z,1.00
2022-08-30T10:31:45.574Z,0.80
2022-08-30T10:34:20.464Z,0.80
2022-08-30T10:36:55.827Z,0.90
2022-08-30T10:39:28.325Z,0.70
2022-08-30T10:42:06.653Z,0.97
2022-08-30T10:44:41.324Z,0.60
2022-08-30T10:47:23.315Z,0.80
2022-08-30T10:50:02.333Z,0.90
2022-08-30T10:52:38.237Z,0.70
2022-08-30T10:55:12.733Z,0.90
2022-08-30T10:57:43.003Z,0.97
2022-08-30T11:00:15.152Z,0.80
2022-08-30T11:03:21.314Z,0.80
2022-08-30T11:06:21.264Z,0.80
2022-08-30T11:09:17.099Z,0.80
2022-08-30T11:12:17.924Z,1.00
2022-08-30T11:14:47.722Z,0.70
2022-08-30T11:17:30.373Z,0.90
2022-08-30T11:20:02.175Z,0.77
2022-08-30T11:22:38.809Z,0.70
2022-08-30T11:25:13.265Z,0.60
2022-08-30T11:27:48.403Z,0.80
2022-08-30T11:30:51.667Z,0.90
2022-08-30T11:33:33.092Z,0.77
2022-08-30T11:36:01.664Z,0.90
2022-08-30T11:39:04.362Z,0.83
2022-08-30T11:41:43.174Z,0.97
2022-08-30T11:44:31.356Z,0.97
2022-08-30T11:47:01.440Z,0.80
2022-08-30T11:49:54.161Z,0.90
2022-08-30T11:52:42.384Z,1.00
2022-08-30T11:55:38.262Z,1.00
2022-08-30T11:58:21.694Z,0.80
2022-08-30T12:01:42.094Z,0.87
2022-08-30T12:04:15.234Z,1.00
2022-08-30T12:06:54.706Z,1.00
2022-08-30T12:10:06.598Z,1.00
2022-08-30T12:12:51.204Z,1.10
2022-08-30T12:15:59.190Z,0.93
2022-08-30T12:18:41.647Z,1.20
2022-08-30T12:21:28.209Z,0.90
2022-08-30T12:24:04.220Z,0.90
2022-08-30T12:26:36.494Z,1.00
2022-08-30T12:29:12.909Z,1.20
2022-08-30T12:31:44.309Z,1.00
2022-08-30T12:34:22.782Z,0.87
2022-08-30T12:37:04.582Z,0.97
2022-08-30T12:39:37.234Z,0.90
2022-08-30T12:42:17.820Z,0.70
2022-08-30T12:44:47.923Z,0.97
2022-08-30T12:47:23.641Z,0.90
2022-08-30T12:49:55.442Z,0.90
2022-08-30T12:52:32.602Z,0.80
2022-08-30T12:55:17.469Z,1.17
2022-08-30T12:58:18.495Z,1.10
2022-08-30T13:00:48.521Z,0.90
2022-08-30T13:03:30.832Z,1.20
2022-08-30T13:06:02.788Z,1.10
2022-08-30T13:08:36.948Z,0.90
2022-08-30T13:11:09.555Z,1.10
2022-08-30T13:13:41.299Z,0.87
2022-08-30T13:16:29.592Z,1.00
2022-08-30T13:19:25.528Z,1.00
2022-08-30T13:21:58.904Z,1.00
2022-08-30T13:24:28.380Z,0.80
2022-08-30T13:27:00.372Z,0.90
2022-08-30T13:29:30.365Z,0.67
2022-08-30T13:31:59.421Z,1.30
2022-08-30T13:34:33.121Z,0.93
2022-08-30T13:37:04.551Z,1.07
2022-08-30T13:39:33.987Z,0.90
2022-08-30T13:44:54.824Z,1.00
2022-08-30T13:47:38.892Z,1.00
2022-08-30T13:50:08.496Z,1.07
2022-08-30T13:52:39.771Z,1.10
2022-08-30T13:55:09.443Z,0.93
2022-08-30T13:57:54.770Z,0.93
2022-08-30T14:00:26.032Z,0.90
2022-08-30T14:02:57.764Z,0.90
2022-08-30T14:11:13.423Z,0.80
2022-08-30T14:16:32.788Z,1.00
2022-08-30T14:19:02.385Z,0.90
2022-08-30T14:21:31.473Z,0.90
2022-08-30T14:24:01.842Z,0.90
2022-08-30T14:26:33.531Z,1.27
2022-08-30T14:29:05.037Z,0.73
2022-08-30T14:31:42.904Z,0.90
2022-08-30T14:34:12.957Z,0.87
2022-08-30T14:36:43.797Z,0.90
2022-08-30T14:39:17.892Z,1.20
2022-08-30T14:41:48.647Z,0.97
2022-08-30T14:44:19.142Z,0.80
2022-08-30T14:46:50.948Z,0.87
2022-08-30T14:49:20.534Z,1.00
2022-08-30T14:51:49.090Z,1.07
2022-08-30T14:54:20.667Z,0.80
2022-08-30T14:56:49.256Z,0.97
2022-08-30T14:59:18.493Z,0.90
2022-08-30T15:01:47.831Z,0.90
2022-08-30T15:04:17.034Z,0.93
2022-08-30T15:06:47.730Z,1.50
2022-08-30T15:09:23.048Z,0.90
2022-08-30T15:11:54.918Z,1.00
2022-08-30T15:14:24.057Z,1.00
2022-08-30T15:16:55.272Z,0.90
2022-08-30T15:19:23.697Z,0.90
2022-08-30T15:21:52.842Z,0.80
2022-08-30T15:24:24.821Z,0.93
2022-08-30T15:26:58.205Z,0.87
2022-08-30T15:29:28.337Z,1.00
2022-08-30T15:32:01.443Z,0.97
2022-08-30T15:34:30.925Z,0.90
2022-08-30T15:36:59.214Z,0.73
2022-08-30T15:39:29.165Z,0.80
2022-08-30T15:42:00.947Z,0.73
2022-08-30T15:44:29.739Z,0.97
2022-08-30T15:46:57.865Z,0.70
2022-08-30T15:49:26.041Z,0.80
2022-08-30T15:51:54.790Z,1.10
2022-08-30T15:54:24.711Z,0.90
2022-08-30T15:56:59.466Z,0.93
2022-08-30T15:59:28.312Z,0.87
2022-08-30T16:01:57.249Z,1.10
2022-08-30T16:04:25.872Z,0.90
2022-08-30T16:06:54.414Z,0.93
2022-08-30T16:09:22.829Z,0.97
2022-08-30T16:11:51.129Z,1.00
2022-08-30T16:14:20.562Z,0.90
2022-08-30T16:16:48.706Z,0.80
2022-08-30T16:19:16.921Z,0.80
2022-08-30T16:21:45.171Z,0.80
2022-08-30T16:24:14.198Z,0.87
2022-08-30T16:26:43.661Z,0.70
2022-08-30T16:29:12.494Z,0.87
2022-08-30T16:31:44.039Z,0.90
2022-08-30T16:34:13.234Z,0.90
2022-08-30T16:36:41.340Z,0.70
2022-08-30T16:39:10.210Z,0.80
2022-08-30T16:41:38.654Z,0.90
2022-08-30T16:44:08.389Z,0.80
2022-08-30T16:46:38.317Z,0.70
2022-08-30T16:49:09.065Z,1.00
2022-08-30T16:51:38.681Z,1.10
2022-08-30T16:54:08.526Z,0.90
2022-08-30T16:56:39.190Z,1.00
2022-08-30T16:59:11.352Z,0.90
2022-08-30T17:01:42.316Z,0.83
2022-08-30T17:04:15.844Z,1.03
2022-08-30T17:06:48.075Z,1.00
2022-08-30T17:09:19.037Z,0.90
2022-08-30T17:11:53.005Z,1.20
2022-08-30T17:14:27.935Z,1.07
2022-08-30T17:17:00.625Z,0.70
2022-08-30T17:19:31.072Z,1.20
2022-08-30T17:22:00.460Z,1.03
2022-08-30T17:24:29.749Z,0.77
2022-08-30T17:26:58.505Z,1.00
2022-08-30T17:29:27.498Z,0.80
2022-08-30T17:31:57.822Z,0.80
2022-08-30T17:34:28.515Z,1.00
2022-08-30T17:37:00.113Z,0.97
2022-08-30T17:39:30.094Z,1.20
2022-08-30T17:42:00.875Z,0.90
2022-08-30T17:44:29.939Z,0.83
2022-08-30T17:46:59.860Z,0.40
2022-08-30T17:49:28.874Z,0.60
2022-08-30T17:51:59.784Z,0.80
2022-08-30T17:54:29.878Z,0.80
2022-08-30T17:56:59.975Z,0.60
2022-08-30T17:59:31.522Z,0.60
2022-08-30T18:02:02.505Z,0.70
2022-08-30T18:04:31.442Z,0.60
2022-08-30T18:07:02.340Z,0.60
2022-08-30T18:09:34.016Z,0.60
2022-08-30T18:12:03.770Z,0.60
2022-08-30T18:14:33.507Z,0.70
2022-08-30T18:17:04.837Z,0.50
2022-08-30T18:19:34.546Z,0.40
2022-08-30T18:22:05.315Z,0.63
2022-08-30T18:24:35.544Z,0.50
2022-08-30T18:27:06.086Z,0.57
2022-08-30T18:29:35.265Z,0.40
2022-08-30T18:32:05.994Z,0.50
2022-08-30T18:34:37.985Z,0.47
2022-08-30T18:37:11.437Z,0.47
2022-08-30T18:39:42.552Z,0.50
2022-08-30T18:42:11.657Z,0.50
2022-08-30T18:44:43.462Z,0.50
2022-08-30T18:47:12.922Z,0.50
2022-08-30T18:49:41.535Z,0.40
2022-08-30T18:52:12.502Z,0.43
2022-08-30T18:54:42.069Z,0.50
2022-08-30T18:57:11.328Z,0.50
2022-08-30T18:59:41.812Z,0.40
2022-08-30T19:02:13.087Z,0.50
2022-08-30T19:04:43.677Z,0.60
2022-08-30T19:07:16.813Z,0.40
2022-08-30T19:09:46.860Z,0.40
2022-08-30T19:12:16.103Z,0.50
2022-08-30T19:14:44.325Z,0.30
2022-08-30T19:17:12.833Z,0.30
2022-08-30T19:19:47.315Z,0.40
2022-08-30T19:22:19.149Z,0.30
2022-08-30T19:24:49.859Z,0.30
2022-08-30T19:27:19.160Z,0.40
2022-08-30T19:29:53.570Z,0.33
2022-08-30T19:32:22.067Z,0.40
2022-08-30T19:34:50.679Z,0.40
2022-08-30T19:37:20.909Z,0.47
2022-08-30T19:39:48.965Z,0.50
2022-08-30T19:42:17.030Z,0.40
2022-08-30T19:44:45.205Z,0.40
2022-08-30T19:47:13.291Z,0.50
2022-08-30T19:49:41.342Z,0.43
2022-08-30T19:52:09.913Z,0.30
2022-08-30T19:54:39.350Z,0.30
2022-08-30T19:57:10.385Z,0.40
2022-08-30T19:59:38.521Z,0.30
2022-08-30T20:02:07.088Z,0.40
2022-08-30T20:04:35.378Z,0.37
2022-08-30T20:07:03.797Z,0.40
2022-08-30T20:09:31.845Z,0.30
2022-08-30T20:12:01.286Z,0.50
2022-08-30T20:14:29.747Z,0.67
2022-08-30T20:16:57.856Z,0.30
2022-08-30T20:19:27.742Z,0.50
2022-08-30T20:21:59.109Z,0.50
2022-08-30T20:27:10.725Z,0.30
2022-08-30T20:29:41.868Z,0.47
2022-08-30T20:32:09.935Z,0.50
2022-08-30T20:34:39.526Z,0.40
2022-08-30T20:37:09.827Z,0.50
2022-08-30T20:39:39.091Z,0.50
2022-08-30T20:42:07.644Z,0.60
2022-08-30T20:44:38.249Z,0.50
2022-08-30T20:47:06.831Z,0.50
2022-08-30T20:49:35.511Z,0.30
2022-08-30T20:52:06.524Z,0.30
2022-08-30T20:54:38.526Z,0.40
2022-08-30T20:57:07.498Z,0.43
2022-08-30T20:59:37.485Z,0.40
2022-08-30T21:02:06.437Z,0.40
2022-08-30T21:04:34.541Z,0.40
2022-08-30T21:07:02.595Z,0.40
2022-08-30T21:09:30.777Z,0.40
2022-08-30T21:11:59.106Z,0.40
2022-08-30T21:14:27.137Z,0.50
2022-08-30T21:16:56.609Z,0.67
2022-08-30T21:19:24.719Z,0.47
2022-08-30T21:21:52.814Z,0.40
2022-08-30T21:24:20.878Z,0.30
2022-08-30T21:26:49.158Z,0.50
2022-08-30T21:29:17.408Z,0.43
2022-08-30T21:31:45.857Z,0.40
2022-08-30T21:34:17.638Z,0.33
2022-08-30T21:36:47.829Z,0.40
2022-08-30T21:39:19.606Z,0.40
2022-08-30T21:41:48.019Z,0.50
2022-08-30T21:44:18.393Z,0.50
2022-08-30T21:46:47.631Z,0.60
2022-08-30T21:49:19.281Z,0.50
2022-08-30T21:51:49.334Z,0.50
2022-08-30T21:54:18.797Z,0.50
2022-08-30T21:56:49.223Z,0.40
2022-08-30T21:59:18.335Z,0.40
2022-08-30T22:01:47.689Z,0.30
2022-08-30T22:04:17.649Z,0.40
2022-08-30T22:06:50.061Z,0.40
2022-08-30T22:09:20.780Z,0.40
2022-08-30T22:11:49.970Z,0.40
2022-08-30T22:14:19.429Z,0.40
2022-08-30T22:16:47.867Z,0.40
2022-08-30T22:19:22.905Z,0.50
2022-08-30T22:21:52.297Z,0.37
2022-08-30T22:24:23.517Z,0.50
2022-08-30T22:26:51.663Z,1.13
2022-08-30T22:29:19.830Z,0.40
2022-08-30T22:31:47.906Z,0.60
2022-08-30T22:34:17.778Z,0.47
2022-08-30T22:36:45.869Z,0.47
2022-08-30T22:39:14.089Z,0.50
2022-08-30T22:41:44.208Z,0.40
2022-08-30T22:44:12.407Z,0.40
2022-08-30T22:46:41.162Z,0.60
2022-08-30T22:49:10.995Z,0.50
2022-08-30T22:51:42.734Z,0.40
2022-08-30T22:54:11.812Z,0.40
2022-08-30T22:56:40.557Z,0.40
2022-08-30T22:59:08.780Z,0.60
2022-08-30T23:01:39.782Z,0.37
2022-08-30T23:04:09.173Z,0.40
2022-08-30T23:06:37.354Z,0.40
2022-08-30T23:09:08.019Z,0.50
2022-08-30T23:11:37.788Z,0.50
2022-08-30T23:14:06.949Z,0.50
2022-08-30T23:16:35.418Z,0.50
2022-08-30T23:19:03.549Z,0.53
2022-08-30T23:21:31.938Z,0.40
2022-08-30T23:24:18.303Z,0.40
2022-08-30T23:27:05.955Z,0.40
2022-08-30T23:29:52.702Z,0.40
2022-08-30T23:32:39.250Z,0.50
2022-08-30T23:35:29.696Z,0.40
2022-08-30T23:38:16.256Z,0.47
2022-08-30T23:41:02.032Z,0.60
2022-08-30T23:43:48.994Z,0.40
2022-08-30T23:46:34.463Z,0.47
2022-08-30T23:49:20.249Z,0.43
2022-08-30T23:52:06.289Z,0.50
2022-08-30T23:54:52.110Z,0.40
2022-08-30T23:57:43.611Z,0.53
